sensor_id;sensor_type;location;lat;lon;timestamp;pressure;altitude;pressure_sealevel;temperature
33877;BMP180;20166;51.738;7.158;2023-08-24T00:01:41;101348.00;;;18.70
33877;BMP180;20166;51.738;7.158;2023-08-24T00:04:28;101348.00;;;18.70
33877;BMP180;20166;51.738;7.158;2023-08-24T00:07:14;101336.00;;;18.70
33877;BMP180;20166;51.738;7.158;2023-08-24T00:10:01;101330.00;;;18.70
33877;BMP180;20166;51.738;7.158;2023-08-24T00:12:49;101330.00;;;18.70
33877;BMP180;20166;51.738;7.158;2023-08-24T00:15:37;101337.00;;;18.70
33877;BMP180;20166;51.738;7.158;2023-08-24T00:18:24;101337.00;;;18.60
33877;BMP180;20166;51.738;7.158;2023-08-24T00:21:12;101335.00;;;18.60
33877;BMP180;20166;51.738;7.158;2023-08-24T00:24:02;101327.00;;;18.60
33877;BMP180;20166;51.738;7.158;2023-08-24T00:26:50;101320.00;;;18.60
33877;BMP180;20166;51.738;7.158;2023-08-24T00:29:37;101317.00;;;18.60
33877;BMP180;20166;51.738;7.158;2023-08-24T00:32:25;101310.00;;;18.50
33877;BMP180;20166;51.738;7.158;2023-08-24T00:35:11;101302.00;;;18.60
33877;BMP180;20166;51.738;7.158;2023-08-24T00:37:58;101298.00;;;18.60
33877;BMP180;20166;51.738;7.158;2023-08-24T00:40:45;101297.00;;;18.50
33877;BMP180;20166;51.738;7.158;2023-08-24T00:43:34;101306.00;;;18.50
33877;BMP180;20166;51.738;7.158;2023-08-24T00:46:21;101306.00;;;18.40
33877;BMP180;20166;51.738;7.158;2023-08-24T00:49:10;101304.00;;;18.40
33877;BMP180;20166;51.738;7.158;2023-08-24T00:51:56;101308.00;;;18.50
33877;BMP180;20166;51.738;7.158;2023-08-24T00:54:43;101302.00;;;18.40
33877;BMP180;20166;51.738;7.158;2023-08-24T00:57:29;101313.00;;;18.40
33877;BMP180;20166;51.738;7.158;2023-08-24T01:00:16;101304.00;;;18.40
33877;BMP180;20166;51.738;7.158;2023-08-24T01:03:03;101295.00;;;18.40
33877;BMP180;20166;51.738;7.158;2023-08-24T01:05:52;101296.00;;;18.40
33877;BMP180;20166;51.738;7.158;2023-08-24T01:08:39;101293.00;;;18.30
33877;BMP180;20166;51.738;7.158;2023-08-24T01:11:33;101301.00;;;18.30
33877;BMP180;20166;51.738;7.158;2023-08-24T01:14:27;101306.00;;;18.30
33877;BMP180;20166;51.738;7.158;2023-08-24T01:17:21;101308.00;;;18.40
33877;BMP180;20166;51.738;7.158;2023-08-24T01:20:09;101309.00;;;18.30
33877;BMP180;20166;51.738;7.158;2023-08-24T01:23:06;101306.00;;;18.20
33877;BMP180;20166;51.738;7.158;2023-08-24T01:25:59;101306.00;;;18.20
33877;BMP180;20166;51.738;7.158;2023-08-24T01:28:46;101300.00;;;18.20
33877;BMP180;20166;51.738;7.158;2023-08-24T01:31:33;101297.00;;;18.10
33877;BMP180;20166;51.738;7.158;2023-08-24T01:34:20;101289.00;;;18.10
33877;BMP180;20166;51.738;7.158;2023-08-24T01:37:06;101287.00;;;18.10
33877;BMP180;20166;51.738;7.158;2023-08-24T01:39:59;101282.00;;;18.10
33877;BMP180;20166;51.738;7.158;2023-08-24T01:42:52;101292.00;;;18.10
33877;BMP180;20166;51.738;7.158;2023-08-24T01:45:41;101291.00;;;18.10
33877;BMP180;20166;51.738;7.158;2023-08-24T01:48:29;101295.00;;;18.10
33877;BMP180;20166;51.738;7.158;2023-08-24T01:51:16;101287.00;;;18.00
33877;BMP180;20166;51.738;7.158;2023-08-24T01:54:03;101280.00;;;18.00
33877;BMP180;20166;51.738;7.158;2023-08-24T01:56:49;101283.00;;;18.00
33877;BMP180;20166;51.738;7.158;2023-08-24T01:59:37;101269.00;;;18.00
33877;BMP180;20166;51.738;7.158;2023-08-24T02:02:24;101273.00;;;18.00
33877;BMP180;20166;51.738;7.158;2023-08-24T02:05:11;101265.00;;;18.00
33877;BMP180;20166;51.738;7.158;2023-08-24T02:07:57;101263.00;;;17.90
33877;BMP180;20166;51.738;7.158;2023-08-24T02:10:45;101254.00;;;18.00
33877;BMP180;20166;51.738;7.158;2023-08-24T02:13:31;101253.00;;;18.00
33877;BMP180;20166;51.738;7.158;2023-08-24T02:16:19;101267.00;;;18.00
33877;BMP180;20166;51.738;7.158;2023-08-24T02:19:06;101263.00;;;18.00
33877;BMP180;20166;51.738;7.158;2023-08-24T02:21:52;101247.00;;;18.00
33877;BMP180;20166;51.738;7.158;2023-08-24T02:24:39;101248.00;;;17.90
33877;BMP180;20166;51.738;7.158;2023-08-24T02:27:25;101247.00;;;17.90
33877;BMP180;20166;51.738;7.158;2023-08-24T02:30:13;101251.00;;;17.80
33877;BMP180;20166;51.738;7.158;2023-08-24T02:33:00;101258.00;;;17.80
33877;BMP180;20166;51.738;7.158;2023-08-24T02:35:47;101257.00;;;17.80
33877;BMP180;20166;51.738;7.158;2023-08-24T02:38:34;101258.00;;;17.80
33877;BMP180;20166;51.738;7.158;2023-08-24T02:41:22;101266.00;;;17.80
33877;BMP180;20166;51.738;7.158;2023-08-24T02:44:09;101266.00;;;17.70
33877;BMP180;20166;51.738;7.158;2023-08-24T02:46:55;101268.00;;;17.70
33877;BMP180;20166;51.738;7.158;2023-08-24T02:49:43;101265.00;;;17.70
33877;BMP180;20166;51.738;7.158;2023-08-24T02:52:29;101253.00;;;17.70
33877;BMP180;20166;51.738;7.158;2023-08-24T02:55:16;101255.00;;;17.70
33877;BMP180;20166;51.738;7.158;2023-08-24T02:58:02;101254.00;;;17.70
33877;BMP180;20166;51.738;7.158;2023-08-24T03:00:49;101254.00;;;17.70
33877;BMP180;20166;51.738;7.158;2023-08-24T03:03:37;101267.00;;;17.70
33877;BMP180;20166;51.738;7.158;2023-08-24T03:06:25;101268.00;;;17.80
33877;BMP180;20166;51.738;7.158;2023-08-24T03:09:11;101267.00;;;17.80
33877;BMP180;20166;51.738;7.158;2023-08-24T03:11:58;101262.00;;;17.90
33877;BMP180;20166;51.738;7.158;2023-08-24T03:14:45;101269.00;;;17.90
33877;BMP180;20166;51.738;7.158;2023-08-24T03:17:31;101253.00;;;17.90
33877;BMP180;20166;51.738;7.158;2023-08-24T03:20:18;101247.00;;;17.90
33877;BMP180;20166;51.738;7.158;2023-08-24T03:23:06;101262.00;;;17.90
33877;BMP180;20166;51.738;7.158;2023-08-24T03:25:55;101255.00;;;17.90
33877;BMP180;20166;51.738;7.158;2023-08-24T03:28:43;101255.00;;;17.90
33877;BMP180;20166;51.738;7.158;2023-08-24T03:31:29;101241.00;;;17.90
33877;BMP180;20166;51.738;7.158;2023-08-24T03:34:16;101243.00;;;17.90
33877;BMP180;20166;51.738;7.158;2023-08-24T03:37:02;101242.00;;;18.00
33877;BMP180;20166;51.738;7.158;2023-08-24T03:39:50;101251.00;;;18.00
33877;BMP180;20166;51.738;7.158;2023-08-24T03:42:36;101251.00;;;18.00
33877;BMP180;20166;51.738;7.158;2023-08-24T03:45:23;101257.00;;;18.00
33877;BMP180;20166;51.738;7.158;2023-08-24T03:48:10;101245.00;;;18.00
33877;BMP180;20166;51.738;7.158;2023-08-24T03:50:56;101255.00;;;18.10
33877;BMP180;20166;51.738;7.158;2023-08-24T03:53:44;101241.00;;;18.10
33877;BMP180;20166;51.738;7.158;2023-08-24T03:56:31;101259.00;;;18.10
33877;BMP180;20166;51.738;7.158;2023-08-24T03:59:18;101262.00;;;18.10
33877;BMP180;20166;51.738;7.158;2023-08-24T04:02:04;101263.00;;;18.20
33877;BMP180;20166;51.738;7.158;2023-08-24T04:04:51;101252.00;;;18.20
33877;BMP180;20166;51.738;7.158;2023-08-24T04:07:38;101247.00;;;18.20
33877;BMP180;20166;51.738;7.158;2023-08-24T04:10:25;101247.00;;;18.20
33877;BMP180;20166;51.738;7.158;2023-08-24T04:13:13;101245.00;;;18.30
33877;BMP180;20166;51.738;7.158;2023-08-24T04:15:59;101238.00;;;18.30
33877;BMP180;20166;51.738;7.158;2023-08-24T04:18:46;101236.00;;;18.30
33877;BMP180;20166;51.738;7.158;2023-08-24T04:21:32;101224.00;;;18.30
33877;BMP180;20166;51.738;7.158;2023-08-24T04:24:18;101226.00;;;18.40
33877;BMP180;20166;51.738;7.158;2023-08-24T04:27:05;101224.00;;;18.30
33877;BMP180;20166;51.738;7.158;2023-08-24T04:29:53;101220.00;;;18.40
33877;BMP180;20166;51.738;7.158;2023-08-24T04:32:40;101219.00;;;18.40
33877;BMP180;20166;51.738;7.158;2023-08-24T04:35:26;101214.00;;;18.50
33877;BMP180;20166;51.738;7.158;2023-08-24T04:38:12;101201.00;;;18.50
33877;BMP180;20166;51.738;7.158;2023-08-24T04:40:59;101184.00;;;18.50
33877;BMP180;20166;51.738;7.158;2023-08-24T04:43:45;101179.00;;;18.50
33877;BMP180;20166;51.738;7.158;2023-08-24T04:46:33;101179.00;;;18.50
33877;BMP180;20166;51.738;7.158;2023-08-24T04:49:19;101176.00;;;18.50
33877;BMP180;20166;51.738;7.158;2023-08-24T04:52:06;101156.00;;;18.60
33877;BMP180;20166;51.738;7.158;2023-08-24T04:54:52;101146.00;;;18.60
33877;BMP180;20166;51.738;7.158;2023-08-24T04:57:39;101147.00;;;18.60
33877;BMP180;20166;51.738;7.158;2023-08-24T05:00:27;101148.00;;;18.40
33877;BMP180;20166;51.738;7.158;2023-08-24T05:03:15;101146.00;;;18.50
33877;BMP180;20166;51.738;7.158;2023-08-24T05:06:02;101149.00;;;18.50
33877;BMP180;20166;51.738;7.158;2023-08-24T05:08:48;101139.00;;;18.50
33877;BMP180;20166;51.738;7.158;2023-08-24T05:11:35;101140.00;;;18.50
33877;BMP180;20166;51.738;7.158;2023-08-24T05:14:21;101137.00;;;18.50
33877;BMP180;20166;51.738;7.158;2023-08-24T05:17:08;101132.00;;;18.50
33877;BMP180;20166;51.738;7.158;2023-08-24T05:19:56;101144.00;;;18.60
33877;BMP180;20166;51.738;7.158;2023-08-24T05:22:42;101141.00;;;18.50
33877;BMP180;20166;51.738;7.158;2023-08-24T05:25:29;101133.00;;;18.50
33877;BMP180;20166;51.738;7.158;2023-08-24T05:28:15;101142.00;;;18.60
33877;BMP180;20166;51.738;7.158;2023-08-24T05:31:02;101149.00;;;18.60
33877;BMP180;20166;51.738;7.158;2023-08-24T05:33:48;101141.00;;;18.60
33877;BMP180;20166;51.738;7.158;2023-08-24T05:36:36;101144.00;;;18.70
33877;BMP180;20166;51.738;7.158;2023-08-24T05:39:22;101154.00;;;18.70
33877;BMP180;20166;51.738;7.158;2023-08-24T05:42:09;101166.00;;;18.70
33877;BMP180;20166;51.738;7.158;2023-08-24T05:44:56;101158.00;;;18.70
33877;BMP180;20166;51.738;7.158;2023-08-24T05:47:42;101151.00;;;18.70
33877;BMP180;20166;51.738;7.158;2023-08-24T05:50:29;101152.00;;;18.70
33877;BMP180;20166;51.738;7.158;2023-08-24T05:53:16;101163.00;;;18.70
33877;BMP180;20166;51.738;7.158;2023-08-24T05:56:03;101145.00;;;18.70
33877;BMP180;20166;51.738;7.158;2023-08-24T05:58:49;101147.00;;;18.80
33877;BMP180;20166;51.738;7.158;2023-08-24T06:01:36;101153.00;;;18.80
33877;BMP180;20166;51.738;7.158;2023-08-24T06:04:23;101155.00;;;18.90
33877;BMP180;20166;51.738;7.158;2023-08-24T06:07:10;101158.00;;;18.90
33877;BMP180;20166;51.738;7.158;2023-08-24T06:09:58;101147.00;;;19.00
33877;BMP180;20166;51.738;7.158;2023-08-24T06:12:44;101153.00;;;18.90
33877;BMP180;20166;51.738;7.158;2023-08-24T06:15:30;101153.00;;;19.00
33877;BMP180;20166;51.738;7.158;2023-08-24T06:18:17;101156.00;;;19.00
33877;BMP180;20166;51.738;7.158;2023-08-24T06:21:03;101142.00;;;19.00
33877;BMP180;20166;51.738;7.158;2023-08-24T06:23:50;101138.00;;;19.10
33877;BMP180;20166;51.738;7.158;2023-08-24T06:26:37;101143.00;;;19.10
33877;BMP180;20166;51.738;7.158;2023-08-24T06:29:24;101134.00;;;19.20
33877;BMP180;20166;51.738;7.158;2023-08-24T06:32:10;101132.00;;;19.30
33877;BMP180;20166;51.738;7.158;2023-08-24T06:34:57;101127.00;;;19.30
33877;BMP180;20166;51.738;7.158;2023-08-24T06:37:43;101123.00;;;19.30
33877;BMP180;20166;51.738;7.158;2023-08-24T06:40:30;101125.00;;;19.40
33877;BMP180;20166;51.738;7.158;2023-08-24T06:43:18;101128.00;;;19.40
33877;BMP180;20166;51.738;7.158;2023-08-24T06:46:04;101124.00;;;19.50
33877;BMP180;20166;51.738;7.158;2023-08-24T06:48:53;101112.00;;;19.50
33877;BMP180;20166;51.738;7.158;2023-08-24T06:51:39;101102.00;;;19.60
33877;BMP180;20166;51.738;7.158;2023-08-24T06:54:26;101104.00;;;19.60
33877;BMP180;20166;51.738;7.158;2023-08-24T06:57:13;101096.00;;;19.70
33877;BMP180;20166;51.738;7.158;2023-08-24T07:00:01;101096.00;;;19.70
33877;BMP180;20166;51.738;7.158;2023-08-24T07:02:51;101075.00;;;19.80
33877;BMP180;20166;51.738;7.158;2023-08-24T07:05:39;101092.00;;;19.90
33877;BMP180;20166;51.738;7.158;2023-08-24T07:08:25;101080.00;;;19.90
33877;BMP180;20166;51.738;7.158;2023-08-24T07:11:12;101076.00;;;19.90
33877;BMP180;20166;51.738;7.158;2023-08-24T07:13:59;101068.00;;;20.00
33877;BMP180;20166;51.738;7.158;2023-08-24T07:16:47;101070.00;;;20.10
33877;BMP180;20166;51.738;7.158;2023-08-24T07:19:33;101070.00;;;20.10
33877;BMP180;20166;51.738;7.158;2023-08-24T07:22:20;101072.00;;;20.20
33877;BMP180;20166;51.738;7.158;2023-08-24T07:25:07;101067.00;;;20.30
33877;BMP180;20166;51.738;7.158;2023-08-24T07:27:56;101066.00;;;20.30
33877;BMP180;20166;51.738;7.158;2023-08-24T07:30:44;101073.00;;;20.40
33877;BMP180;20166;51.738;7.158;2023-08-24T07:33:32;101067.00;;;20.50
33877;BMP180;20166;51.738;7.158;2023-08-24T07:36:18;101075.00;;;20.50
33877;BMP180;20166;51.738;7.158;2023-08-24T07:39:05;101069.00;;;20.70
33877;BMP180;20166;51.738;7.158;2023-08-24T07:41:52;101067.00;;;20.70
33877;BMP180;20166;51.738;7.158;2023-08-24T07:44:38;101067.00;;;20.80
33877;BMP180;20166;51.738;7.158;2023-08-24T07:47:25;101061.00;;;20.90
33877;BMP180;20166;51.738;7.158;2023-08-24T07:50:12;101054.00;;;21.00
33877;BMP180;20166;51.738;7.158;2023-08-24T07:52:59;101065.00;;;21.00
33877;BMP180;20166;51.738;7.158;2023-08-24T07:55:46;101074.00;;;21.20
33877;BMP180;20166;51.738;7.158;2023-08-24T07:58:33;101073.00;;;21.30
33877;BMP180;20166;51.738;7.158;2023-08-24T08:01:19;101062.00;;;21.40
33877;BMP180;20166;51.738;7.158;2023-08-24T08:04:05;101067.00;;;21.50
33877;BMP180;20166;51.738;7.158;2023-08-24T08:06:53;101070.00;;;21.70
33877;BMP180;20166;51.738;7.158;2023-08-24T08:09:41;101060.00;;;21.80
33877;BMP180;20166;51.738;7.158;2023-08-24T08:12:27;101052.00;;;22.00
33877;BMP180;20166;51.738;7.158;2023-08-24T08:15:14;101050.00;;;22.00
33877;BMP180;20166;51.738;7.158;2023-08-24T08:18:01;101062.00;;;22.20
33877;BMP180;20166;51.738;7.158;2023-08-24T08:20:51;101061.00;;;22.20
33877;BMP180;20166;51.738;7.158;2023-08-24T08:23:39;101060.00;;;22.40
33877;BMP180;20166;51.738;7.158;2023-08-24T08:26:26;101067.00;;;22.50
33877;BMP180;20166;51.738;7.158;2023-08-24T08:29:12;101049.00;;;22.60
33877;BMP180;20166;51.738;7.158;2023-08-24T08:31:58;101052.00;;;22.70
33877;BMP180;20166;51.738;7.158;2023-08-24T08:34:46;101056.00;;;22.90
33877;BMP180;20166;51.738;7.158;2023-08-24T08:37:32;101056.00;;;23.00
33877;BMP180;20166;51.738;7.158;2023-08-24T08:40:20;101053.00;;;23.20
33877;BMP180;20166;51.738;7.158;2023-08-24T08:43:07;101053.00;;;23.30
33877;BMP180;20166;51.738;7.158;2023-08-24T08:45:55;101050.00;;;23.40
33877;BMP180;20166;51.738;7.158;2023-08-24T08:48:43;101053.00;;;23.60
33877;BMP180;20166;51.738;7.158;2023-08-24T08:51:32;101046.00;;;23.70
33877;BMP180;20166;51.738;7.158;2023-08-24T08:54:19;101048.00;;;23.90
33877;BMP180;20166;51.738;7.158;2023-08-24T08:57:08;101043.00;;;24.10
33877;BMP180;20166;51.738;7.158;2023-08-24T08:59:55;101029.00;;;24.20
33877;BMP180;20166;51.738;7.158;2023-08-24T09:02:43;101020.00;;;24.50
33877;BMP180;20166;51.738;7.158;2023-08-24T09:05:31;101022.00;;;24.60
33877;BMP180;20166;51.738;7.158;2023-08-24T09:08:19;101023.00;;;24.70
33877;BMP180;20166;51.738;7.158;2023-08-24T09:11:08;101024.00;;;24.80
33877;BMP180;20166;51.738;7.158;2023-08-24T09:13:56;101021.00;;;24.80
33877;BMP180;20166;51.738;7.158;2023-08-24T09:16:43;101016.00;;;25.00
33877;BMP180;20166;51.738;7.158;2023-08-24T09:19:31;101017.00;;;25.10
33877;BMP180;20166;51.738;7.158;2023-08-24T09:22:17;101013.00;;;25.20
33877;BMP180;20166;51.738;7.158;2023-08-24T09:25:04;101013.00;;;25.30
33877;BMP180;20166;51.738;7.158;2023-08-24T09:27:57;100995.00;;;25.40
33877;BMP180;20166;51.738;7.158;2023-08-24T09:30:45;100989.00;;;25.50
33877;BMP180;20166;51.738;7.158;2023-08-24T09:33:35;100975.00;;;25.60
33877;BMP180;20166;51.738;7.158;2023-08-24T09:36:22;100964.00;;;25.70
33877;BMP180;20166;51.738;7.158;2023-08-24T09:39:08;100955.00;;;25.70
33877;BMP180;20166;51.738;7.158;2023-08-24T09:42:00;100940.00;;;25.80
33877;BMP180;20166;51.738;7.158;2023-08-24T09:44:48;100939.00;;;25.90
33877;BMP180;20166;51.738;7.158;2023-08-24T09:47:36;100929.00;;;25.90
33877;BMP180;20166;51.738;7.158;2023-08-24T09:50:22;100915.00;;;26.00
33877;BMP180;20166;51.738;7.158;2023-08-24T09:53:10;100907.00;;;26.10
33877;BMP180;20166;51.738;7.158;2023-08-24T09:56:02;100902.00;;;26.30
33877;BMP180;20166;51.738;7.158;2023-08-24T09:58:51;100900.00;;;26.40
33877;BMP180;20166;51.738;7.158;2023-08-24T10:01:41;100897.00;;;26.60
33877;BMP180;20166;51.738;7.158;2023-08-24T10:04:34;100899.00;;;26.70
33877;BMP180;20166;51.738;7.158;2023-08-24T10:07:24;100902.00;;;26.70
33877;BMP180;20166;51.738;7.158;2023-08-24T10:10:12;100911.00;;;26.80
33877;BMP180;20166;51.738;7.158;2023-08-24T10:13:06;100907.00;;;26.80
33877;BMP180;20166;51.738;7.158;2023-08-24T10:15:55;100918.00;;;26.90
33877;BMP180;20166;51.738;7.158;2023-08-24T10:18:43;100933.00;;;26.90
33877;BMP180;20166;51.738;7.158;2023-08-24T10:21:31;100949.00;;;27.00
33877;BMP180;20166;51.738;7.158;2023-08-24T10:24:19;100950.00;;;27.10
33877;BMP180;20166;51.738;7.158;2023-08-24T10:27:09;100956.00;;;27.20
33877;BMP180;20166;51.738;7.158;2023-08-24T10:29:56;100946.00;;;27.40
33877;BMP180;20166;51.738;7.158;2023-08-24T10:32:45;100953.00;;;27.50
33877;BMP180;20166;51.738;7.158;2023-08-24T10:35:34;100961.00;;;27.70
33877;BMP180;20166;51.738;7.158;2023-08-24T10:38:26;100947.00;;;27.80
33877;BMP180;20166;51.738;7.158;2023-08-24T10:41:14;100943.00;;;28.00
33877;BMP180;20166;51.738;7.158;2023-08-24T10:44:05;100939.00;;;28.20
33877;BMP180;20166;51.738;7.158;2023-08-24T10:47:08;100937.00;;;28.20
33877;BMP180;20166;51.738;7.158;2023-08-24T10:49:58;100942.00;;;28.20
33877;BMP180;20166;51.738;7.158;2023-08-24T10:52:46;100924.00;;;28.20
33877;BMP180;20166;51.738;7.158;2023-08-24T10:55:34;100929.00;;;28.20
33877;BMP180;20166;51.738;7.158;2023-08-24T10:58:21;100922.00;;;28.10
33877;BMP180;20166;51.738;7.158;2023-08-24T11:01:14;100913.00;;;28.20
33877;BMP180;20166;51.738;7.158;2023-08-24T11:04:05;100899.00;;;28.40
33877;BMP180;20166;51.738;7.158;2023-08-24T11:06:54;100904.00;;;28.30
33877;BMP180;20166;51.738;7.158;2023-08-24T11:09:45;100887.00;;;28.30
33877;BMP180;20166;51.738;7.158;2023-08-24T11:13:04;100895.00;;;28.50
33877;BMP180;20166;51.738;7.158;2023-08-24T11:15:51;100897.00;;;28.40
33877;BMP180;20166;51.738;7.158;2023-08-24T11:18:43;100892.00;;;28.40
33877;BMP180;20166;51.738;7.158;2023-08-24T11:21:29;100892.00;;;28.50
33877;BMP180;20166;51.738;7.158;2023-08-24T11:24:16;100894.00;;;28.50
33877;BMP180;20166;51.738;7.158;2023-08-24T11:27:03;100892.00;;;28.50
33877;BMP180;20166;51.738;7.158;2023-08-24T11:29:58;100887.00;;;28.40
33877;BMP180;20166;51.738;7.158;2023-08-24T11:32:51;100883.00;;;28.40
33877;BMP180;20166;51.738;7.158;2023-08-24T11:35:40;100875.00;;;28.40
33877;BMP180;20166;51.738;7.158;2023-08-24T11:38:35;100863.00;;;28.30
33877;BMP180;20166;51.738;7.158;2023-08-24T11:41:24;100861.00;;;28.20
33877;BMP180;20166;51.738;7.158;2023-08-24T11:44:10;100857.00;;;28.20
33877;BMP180;20166;51.738;7.158;2023-08-24T11:47:14;100852.00;;;28.10
33877;BMP180;20166;51.738;7.158;2023-08-24T11:50:01;100865.00;;;28.10
33877;BMP180;20166;51.738;7.158;2023-08-24T11:52:48;100847.00;;;28.10
33877;BMP180;20166;51.738;7.158;2023-08-24T11:55:39;100858.00;;;28.10
33877;BMP180;20166;51.738;7.158;2023-08-24T11:58:48;100867.00;;;28.00
33877;BMP180;20166;51.738;7.158;2023-08-24T12:01:36;100863.00;;;27.80
33877;BMP180;20166;51.738;7.158;2023-08-24T12:04:25;100866.00;;;27.70
33877;BMP180;20166;51.738;7.158;2023-08-24T12:07:12;100870.00;;;27.60
33877;BMP180;20166;51.738;7.158;2023-08-24T12:10:00;100878.00;;;27.50
33877;BMP180;20166;51.738;7.158;2023-08-24T12:12:47;100874.00;;;27.40
33877;BMP180;20166;51.738;7.158;2023-08-24T12:15:34;100876.00;;;27.20
33877;BMP180;20166;51.738;7.158;2023-08-24T12:18:21;100879.00;;;27.20
33877;BMP180;20166;51.738;7.158;2023-08-24T12:21:09;100874.00;;;27.20
33877;BMP180;20166;51.738;7.158;2023-08-24T12:23:57;100876.00;;;27.40
33877;BMP180;20166;51.738;7.158;2023-08-24T12:26:55;100862.00;;;27.60
33877;BMP180;20166;51.738;7.158;2023-08-24T12:29:44;100854.00;;;27.80
33877;BMP180;20166;51.738;7.158;2023-08-24T12:32:42;100845.00;;;27.90
33877;BMP180;20166;51.738;7.158;2023-08-24T12:35:29;100833.00;;;28.10
33877;BMP180;20166;51.738;7.158;2023-08-24T12:38:17;100822.00;;;28.30
33877;BMP180;20166;51.738;7.158;2023-08-24T12:41:04;100809.00;;;28.20
33877;BMP180;20166;51.738;7.158;2023-08-24T12:43:50;100807.00;;;28.30
33877;BMP180;20166;51.738;7.158;2023-08-24T12:46:38;100801.00;;;28.30
33877;BMP180;20166;51.738;7.158;2023-08-24T12:49:24;100797.00;;;28.20
33877;BMP180;20166;51.738;7.158;2023-08-24T12:52:11;100785.00;;;28.40
33877;BMP180;20166;51.738;7.158;2023-08-24T12:54:59;100792.00;;;28.50
33877;BMP180;20166;51.738;7.158;2023-08-24T12:57:45;100797.00;;;28.50
33877;BMP180;20166;51.738;7.158;2023-08-24T13:00:32;100793.00;;;28.40
33877;BMP180;20166;51.738;7.158;2023-08-24T13:03:18;100790.00;;;28.10
33877;BMP180;20166;51.738;7.158;2023-08-24T13:06:05;100776.00;;;27.90
33877;BMP180;20166;51.738;7.158;2023-08-24T13:09:07;100771.00;;;27.70
33877;BMP180;20166;51.738;7.158;2023-08-24T13:11:58;100767.00;;;27.50
33877;BMP180;20166;51.738;7.158;2023-08-24T13:14:45;100750.00;;;27.30
33877;BMP180;20166;51.738;7.158;2023-08-24T13:17:31;100750.00;;;27.20
33877;BMP180;20166;51.738;7.158;2023-08-24T13:20:19;100736.00;;;27.10
33877;BMP180;20166;51.738;7.158;2023-08-24T13:23:05;100720.00;;;27.00
33877;BMP180;20166;51.738;7.158;2023-08-24T13:25:51;100706.00;;;26.80
33877;BMP180;20166;51.738;7.158;2023-08-24T13:28:39;100711.00;;;26.80
33877;BMP180;20166;51.738;7.158;2023-08-24T13:31:25;100731.00;;;26.80
33877;BMP180;20166;51.738;7.158;2023-08-24T13:34:15;100736.00;;;26.60
33877;BMP180;20166;51.738;7.158;2023-08-24T13:37:02;100747.00;;;26.40
33877;BMP180;20166;51.738;7.158;2023-08-24T13:39:49;100738.00;;;26.20
33877;BMP180;20166;51.738;7.158;2023-08-24T13:42:36;100739.00;;;26.10
33877;BMP180;20166;51.738;7.158;2023-08-24T13:45:23;100738.00;;;26.00
33877;BMP180;20166;51.738;7.158;2023-08-24T13:48:10;100740.00;;;26.00
33877;BMP180;20166;51.738;7.158;2023-08-24T13:50:56;100743.00;;;26.00
33877;BMP180;20166;51.738;7.158;2023-08-24T13:53:43;100747.00;;;26.00
33877;BMP180;20166;51.738;7.158;2023-08-24T13:56:30;100754.00;;;26.10
33877;BMP180;20166;51.738;7.158;2023-08-24T13:59:17;100752.00;;;26.10
33877;BMP180;20166;51.738;7.158;2023-08-24T14:02:05;100750.00;;;26.00
33877;BMP180;20166;51.738;7.158;2023-08-24T14:04:52;100746.00;;;26.00
33877;BMP180;20166;51.738;7.158;2023-08-24T14:07:39;100742.00;;;26.00
33877;BMP180;20166;51.738;7.158;2023-08-24T14:10:25;100744.00;;;26.10
33877;BMP180;20166;51.738;7.158;2023-08-24T14:13:14;100751.00;;;26.10
33877;BMP180;20166;51.738;7.158;2023-08-24T14:16:00;100754.00;;;26.20
33877;BMP180;20166;51.738;7.158;2023-08-24T14:18:48;100741.00;;;26.10
33877;BMP180;20166;51.738;7.158;2023-08-24T14:21:35;100735.00;;;26.20
33877;BMP180;20166;51.738;7.158;2023-08-24T14:24:29;100744.00;;;26.20
33877;BMP180;20166;51.738;7.158;2023-08-24T14:27:16;100737.00;;;26.30
33877;BMP180;20166;51.738;7.158;2023-08-24T14:30:03;100750.00;;;26.40
33877;BMP180;20166;51.738;7.158;2023-08-24T14:32:50;100741.00;;;26.40
33877;BMP180;20166;51.738;7.158;2023-08-24T14:35:38;100740.00;;;26.40
33877;BMP180;20166;51.738;7.158;2023-08-24T14:38:25;100734.00;;;26.50
33877;BMP180;20166;51.738;7.158;2023-08-24T14:41:13;100732.00;;;26.50
33877;BMP180;20166;51.738;7.158;2023-08-24T14:44:00;100734.00;;;26.50
33877;BMP180;20166;51.738;7.158;2023-08-24T14:46:46;100739.00;;;26.50
33877;BMP180;20166;51.738;7.158;2023-08-24T14:49:36;100739.00;;;26.50
33877;BMP180;20166;51.738;7.158;2023-08-24T14:52:24;100740.00;;;26.50
33877;BMP180;20166;51.738;7.158;2023-08-24T14:55:10;100730.00;;;26.50
33877;BMP180;20166;51.738;7.158;2023-08-24T14:57:58;100726.00;;;26.50
33877;BMP180;20166;51.738;7.158;2023-08-24T15:00:45;100724.00;;;26.50
33877;BMP180;20166;51.738;7.158;2023-08-24T15:03:32;100712.00;;;26.40
33877;BMP180;20166;51.738;7.158;2023-08-24T15:06:18;100711.00;;;26.40
33877;BMP180;20166;51.738;7.158;2023-08-24T15:09:05;100700.00;;;26.30
33877;BMP180;20166;51.738;7.158;2023-08-24T15:11:51;100704.00;;;26.30
33877;BMP180;20166;51.738;7.158;2023-08-24T15:14:56;100706.00;;;26.20
33877;BMP180;20166;51.738;7.158;2023-08-24T15:17:43;100708.00;;;26.10
33877;BMP180;20166;51.738;7.158;2023-08-24T15:20:30;100709.00;;;26.10
33877;BMP180;20166;51.738;7.158;2023-08-24T15:23:21;100709.00;;;26.00
33877;BMP180;20166;51.738;7.158;2023-08-24T15:26:11;100713.00;;;25.90
33877;BMP180;20166;51.738;7.158;2023-08-24T15:29:08;100714.00;;;25.90
33877;BMP180;20166;51.738;7.158;2023-08-24T15:31:55;100718.00;;;25.80
33877;BMP180;20166;51.738;7.158;2023-08-24T15:34:44;100714.00;;;25.80
33877;BMP180;20166;51.738;7.158;2023-08-24T15:37:31;100719.00;;;25.70
33877;BMP180;20166;51.738;7.158;2023-08-24T15:40:17;100710.00;;;25.70
33877;BMP180;20166;51.738;7.158;2023-08-24T15:43:06;100713.00;;;25.60
33877;BMP180;20166;51.738;7.158;2023-08-24T15:45:53;100708.00;;;25.50
33877;BMP180;20166;51.738;7.158;2023-08-24T15:48:39;100705.00;;;25.50
33877;BMP180;20166;51.738;7.158;2023-08-24T15:51:25;100705.00;;;25.50
33877;BMP180;20166;51.738;7.158;2023-08-24T15:54:12;100710.00;;;25.40